Time;durP1;ratioP1;P1;durP2;ratioP2;P2;SDS_P1;SDS_P2;PMS_P1;PMS_P2;Temp;Humidity;BMP_temperature;BMP_pressure;BME280_temperature;BME280_humidity;BME280_pressure;Samples;Min_cycle;Max_cycle;Signal;HPM_P1;HPM_P2
2020/12/06 00:00:21;;;;;;;23.63;13.48;;;;;;;5.93;80.81;100525.34;5050315;28;20021;-77
2020/12/06 00:02:47;;;;;;;27.33;14.50;;;;;;;5.91;80.89;100528.28;5052130;28;20028;-76
2020/12/06 00:05:12;;;;;;;23.63;14.43;;;;;;;5.91;81.12;100519.34;5052295;28;20356;-76
2020/12/06 00:07:38;;;;;;;24.00;13.93;;;;;;;5.93;81.03;100514.50;5051263;28;20028;-76
2020/12/06 00:10:05;;;;;;;26.77;13.40;;;;;;;5.93;80.98;100509.94;5050954;28;20017;-76
2020/12/06 00:12:36;;;;;;;20.95;12.73;;;;;;;5.92;80.70;100504.75;5051292;28;20024;-76
2020/12/06 00:15:01;;;;;;;20.48;12.30;;;;;;;5.91;80.94;100524.75;5067947;28;20530;-76
2020/12/06 00:17:27;;;;;;;22.95;12.02;;;;;;;5.92;80.76;100523.69;5048985;28;20112;-76
2020/12/06 00:19:52;;;;;;;18.92;11.90;;;;;;;5.93;80.76;100534.31;5051673;28;20074;-76
2020/12/06 00:22:18;;;;;;;21.95;12.77;;;;;;;5.93;80.71;100538.88;5051030;28;20032;-76
2020/12/06 00:24:43;;;;;;;22.08;13.85;;;;;;;5.95;80.78;100542.19;5050798;28;20013;-76
2020/12/06 00:27:08;;;;;;;29.35;15.52;;;;;;;5.96;80.84;100554.63;5050976;28;20032;-76
2020/12/06 00:29:34;;;;;;;23.80;15.07;;;;;;;5.97;80.85;100551.69;5051998;28;20035;-77
2020/12/06 00:31:59;;;;;;;24.73;16.10;;;;;;;5.98;80.48;100547.09;5051230;28;20054;-76
2020/12/06 00:34:26;;;;;;;22.85;12.77;;;;;;;5.96;80.66;100543.81;5051635;28;20093;-76
2020/12/06 00:36:51;;;;;;;21.48;12.38;;;;;;;5.95;80.77;100547.59;5051116;28;20025;-77
2020/12/06 00:39:16;;;;;;;22.45;13.95;;;;;;;5.95;80.52;100553.00;5051742;28;20033;-76
2020/12/06 00:41:44;;;;;;;23.88;13.18;;;;;;;5.95;80.66;100550.28;5050225;28;20368;-76
2020/12/06 00:44:10;;;;;;;20.88;12.55;;;;;;;5.94;80.43;100533.22;5050726;28;20381;-76
2020/12/06 00:46:35;;;;;;;25.63;13.65;;;;;;;5.94;80.53;100529.69;5050871;28;20032;-76
2020/12/06 00:49:00;;;;;;;21.05;13.20;;;;;;;5.95;80.43;100524.06;5051818;28;20032;-76
2020/12/06 00:51:26;;;;;;;17.65;11.40;;;;;;;5.93;80.82;100538.88;5050771;28;20074;-77
2020/12/06 00:53:51;;;;;;;20.25;12.68;;;;;;;5.95;80.67;100551.13;5050497;28;20390;-77
2020/12/06 00:56:18;;;;;;;23.55;13.38;;;;;;;5.97;80.39;100557.09;5049422;28;20040;-76
2020/12/06 00:58:43;;;;;;;24.17;13.63;;;;;;;5.98;80.58;100574.16;5051660;28;20515;-76
2020/12/06 01:01:09;;;;;;;19.20;10.30;;;;;;;5.99;80.81;100583.91;5049224;28;20032;-76
2020/12/06 01:03:34;;;;;;;18.70;10.50;;;;;;;6.00;80.77;100572.00;5051641;28;20021;-76
2020/12/06 01:05:59;;;;;;;20.38;10.57;;;;;;;6.01;80.56;100584.47;5049509;28;20031;-76
2020/12/06 01:08:25;;;;;;;15.80;9.48;;;;;;;6.02;80.30;100593.41;5050643;28;20021;-76
2020/12/06 01:10:50;;;;;;;17.40;9.82;;;;;;;6.02;80.55;100590.69;5050634;28;20079;-77
2020/12/06 01:13:15;;;;;;;16.55;9.75;;;;;;;6.00;80.27;100588.22;5050507;28;20055;-77
2020/12/06 01:15:41;;;;;;;15.43;9.05;;;;;;;5.99;80.29;100590.13;5050948;28;20025;-77
2020/12/06 01:18:06;;;;;;;13.35;8.13;;;;;;;5.99;80.47;100598.25;5050014;28;20386;-77
2020/12/06 01:20:32;;;;;;;12.82;8.77;;;;;;;5.98;80.22;100595.78;5051316;28;20025;-76
2020/12/06 01:22:57;;;;;;;12.00;8.60;;;;;;;5.96;80.36;100609.56;5050579;28;20029;-76
2020/12/06 01:25:23;;;;;;;12.15;7.68;;;;;;;5.96;80.23;100620.38;5051370;28;20039;-76
2020/12/06 01:27:48;;;;;;;12.98;8.18;;;;;;;5.98;80.38;100617.44;5049467;28;20024;-76
2020/12/06 01:30:14;;;;;;;12.32;8.55;;;;;;;5.98;80.57;100617.44;5049680;28;20021;-76
2020/12/06 01:32:39;;;;;;;17.23;8.18;;;;;;;5.98;80.48;100614.75;5052083;28;20447;-76
2020/12/06 01:35:05;;;;;;;14.18;7.75;;;;;;;5.97;80.65;100594.13;5053652;28;20041;-76
2020/12/06 01:37:30;;;;;;;13.02;8.10;;;;;;;5.96;80.62;100597.94;5052681;28;20029;-77
2020/12/06 01:39:55;;;;;;;12.52;7.38;;;;;;;5.95;80.61;100596.28;5053798;28;20025;-77
2020/12/06 01:42:21;;;;;;;13.18;7.63;;;;;;;5.92;80.61;100585.91;5053173;28;20028;-76
2020/12/06 01:44:47;;;;;;;12.35;7.85;;;;;;;5.93;80.86;100592.97;5041003;28;20017;-76
2020/12/06 01:47:12;;;;;;;10.98;7.57;;;;;;;5.93;80.54;100587.56;5032919;28;20041;-77
2020/12/06 01:49:38;;;;;;;12.80;7.65;;;;;;;5.92;80.57;100580.50;5051509;28;20021;-77
2020/12/06 01:52:05;;;;;;;11.15;7.13;;;;;;;5.90;80.53;100582.66;5052720;28;20025;-76
2020/12/06 01:54:30;;;;;;;13.48;7.88;;;;;;;5.90;80.60;100579.94;5054001;28;20103;-76
2020/12/06 01:56:55;;;;;;;12.32;6.45;;;;;;;5.88;80.80;100571.25;5069347;28;20043;-77
2020/12/06 01:59:21;;;;;;;11.75;8.07;;;;;;;5.88;80.83;100573.97;5054624;28;20490;-76
2020/12/06 02:01:57;;;;;;;11.25;6.38;;;;;;;5.89;80.73;100583.69;5053594;28;20025;-77
2020/12/06 02:04:24;;;;;;;12.55;7.47;;;;;;;5.90;80.72;100578.06;5054632;28;20025;-77
2020/12/06 02:06:49;;;;;;;9.80;7.22;;;;;;;5.91;80.63;100578.88;5052296;28;20025;-76
2020/12/06 02:09:15;;;;;;;11.05;7.18;;;;;;;5.92;80.60;100577.78;5053242;28;20043;-76
2020/12/06 02:11:40;;;;;;;8.25;5.93;;;;;;;5.94;80.73;100583.81;5052204;28;20029;-76
2020/12/06 02:14:05;;;;;;;10.02;6.00;;;;;;;5.95;80.65;100590.88;5053017;28;20078;-76
2020/12/06 02:16:31;;;;;;;10.38;5.43;;;;;;;5.97;80.24;100594.97;5052180;28;20020;-76
2020/12/06 02:18:56;;;;;;;9.07;5.60;;;;;;;6.00;80.25;100609.88;5052030;28;20029;-76
2020/12/06 02:21:22;;;;;;;10.13;5.55;;;;;;;6.03;80.35;100613.97;5068826;28;20049;-76
2020/12/06 02:23:47;;;;;;;10.63;6.35;;;;;;;6.04;80.32;100616.44;5053999;28;20033;-76
2020/12/06 02:26:12;;;;;;;7.78;5.45;;;;;;;6.05;80.09;100623.50;5052090;28;20036;-77
2020/12/06 02:28:38;;;;;;;9.65;5.70;;;;;;;6.06;80.18;100624.34;5059791;28;20501;-76
2020/12/06 02:31:03;;;;;;;9.23;5.85;;;;;;;6.07;80.30;100621.34;5052779;28;20020;-76
2020/12/06 02:33:29;;;;;;;9.25;6.13;;;;;;;6.10;80.07;100617.34;5053040;28;20032;-76
2020/12/06 02:35:54;;;;;;;9.45;6.53;;;;;;;6.10;79.96;100615.44;5052450;28;20052;-76
2020/12/06 02:38:20;;;;;;;9.40;6.90;;;;;;;6.11;80.30;100613.56;5052951;28;20028;-76
2020/12/06 02:40:45;;;;;;;12.30;6.72;;;;;;;6.11;79.98;100606.28;5052451;28;20029;-77
2020/12/06 02:43:10;;;;;;;10.98;7.15;;;;;;;6.12;80.13;100613.31;5052601;28;20367;-77
2020/12/06 02:45:36;;;;;;;10.40;6.50;;;;;;;6.12;79.93;100602.50;5053767;28;20029;-76
2020/12/06 02:48:01;;;;;;;8.35;6.20;;;;;;;6.11;80.06;100600.88;5050515;28;20398;-77
2020/12/06 02:50:27;;;;;;;10.75;7.30;;;;;;;6.10;79.99;100598.41;5053764;28;20028;-77
2020/12/06 02:52:57;;;;;;;11.45;7.00;;;;;;;6.04;80.39;100586.69;5051550;28;20031;-77
2020/12/06 02:55:26;;;;;;;9.45;6.40;;;;;;;6.00;80.14;100580.09;5052447;28;20033;-77
2020/12/06 02:57:51;;;;;;;12.73;7.18;;;;;;;5.96;80.14;100581.69;5051495;28;20037;-76
2020/12/06 03:00:17;;;;;;;11.38;6.53;;;;;;;5.92;80.18;100581.34;5053443;28;20540;-76
2020/12/06 03:02:42;;;;;;;10.35;6.75;;;;;;;5.89;80.32;100586.41;5051643;28;20494;-76
2020/12/06 03:05:08;;;;;;;8.90;5.97;;;;;;;5.87;80.43;100583.16;5052100;28;20409;-77
2020/12/06 03:07:33;;;;;;;10.85;6.63;;;;;;;5.84;80.11;100580.91;5051319;28;20087;-76
2020/12/06 03:09:58;;;;;;;8.88;6.57;;;;;;;5.80;80.14;100580.59;5051915;28;20016;-77
2020/12/06 03:12:24;;;;;;;7.63;6.00;;;;;;;5.77;80.14;100583.81;5052350;28;20033;-76
2020/12/06 03:14:49;;;;;;;13.18;8.32;;;;;;;5.72;80.18;100587.25;5050295;28;20023;-76
2020/12/06 03:17:15;;;;;;;9.85;6.43;;;;;;;5.66;80.19;100585.53;5051030;28;20497;-76
2020/12/06 03:19:40;;;;;;;12.27;7.30;;;;;;;5.61;80.30;100582.72;5053006;28;20025;-76
2020/12/06 03:22:06;;;;;;;11.07;6.63;;;;;;;5.55;80.34;100586.44;5050775;28;20394;-77
2020/12/06 03:24:31;;;;;;;10.88;7.43;;;;;;;5.49;80.41;100598.22;5051932;28;20017;-77
2020/12/06 03:26:56;;;;;;;15.48;8.32;;;;;;;5.43;80.38;100605.44;5052129;28;20447;-77
2020/12/06 03:29:22;;;;;;;11.73;7.82;;;;;;;5.37;80.47;100621.78;5052791;28;20017;-77
2020/12/06 03:31:47;;;;;;;9.23;7.15;;;;;;;5.31;80.53;100626.28;5052052;28;20046;-77
2020/12/06 03:34:12;;;;;;;10.80;6.45;;;;;;;5.24;80.59;100621.06;5052564;28;20059;-77
2020/12/06 03:36:38;;;;;;;10.23;7.28;;;;;;;5.19;80.74;100618.25;5051959;28;20053;-76
2020/12/06 03:39:03;;;;;;;10.77;7.35;;;;;;;5.13;80.67;100611.13;5050678;28;20078;-76
2020/12/06 03:41:29;;;;;;;13.50;7.45;;;;;;;5.06;80.68;100621.25;5051046;28;20044;-77
2020/12/06 03:43:55;;;;;;;14.27;7.97;;;;;;;5.00;80.86;100619.50;5052181;28;20098;-76
2020/12/06 03:46:20;;;;;;;13.73;8.15;;;;;;;4.95;80.91;100624.81;5051376;28;20032;-76
2020/12/06 03:48:45;;;;;;;14.38;7.53;;;;;;;4.90;81.07;100629.03;5050399;28;20044;-76
2020/12/06 03:51:11;;;;;;;15.00;8.00;;;;;;;4.85;81.14;100639.72;5052482;28;20090;-76
2020/12/06 03:53:36;;;;;;;13.05;8.35;;;;;;;4.83;81.23;100639.19;5049930;28;20433;-76
2020/12/06 03:56:02;;;;;;;18.63;9.52;;;;;;;4.81;81.23;100625.09;5051267;28;20067;-76
2020/12/06 03:58:27;;;;;;;16.30;10.93;;;;;;;4.79;81.30;100629.91;5051623;28;20048;-76
2020/12/06 04:00:52;;;;;;;22.02;11.90;;;;;;;4.76;81.17;100641.19;5052429;28;20029;-76
2020/12/06 04:03:18;;;;;;;19.63;11.10;;;;;;;4.75;81.57;100647.66;5050231;28;20021;-76
2020/12/06 04:05:43;;;;;;;22.08;12.15;;;;;;;4.75;81.28;100655.75;5052496;28;20430;-76
2020/12/06 04:08:09;;;;;;;18.55;11.50;;;;;;;4.77;81.74;100666.31;5050352;28;20492;-76
2020/12/06 04:10:34;;;;;;;23.48;13.25;;;;;;;4.77;81.88;100664.41;5052302;28;20024;-76
2020/12/06 04:12:59;;;;;;;25.00;13.77;;;;;;;4.79;81.93;100675.81;5051154;28;20360;-76
2020/12/06 04:15:25;;;;;;;25.08;13.68;;;;;;;4.81;81.97;100673.69;5051001;28;20037;-77
2020/12/06 04:17:50;;;;;;;27.05;14.77;;;;;;;4.82;82.03;100672.63;5050317;28;20024;-76
2020/12/06 04:20:15;;;;;;;23.80;13.93;;;;;;;4.85;82.05;100669.44;5050756;28;20029;-76
2020/12/06 04:22:41;;;;;;;29.35;16.23;;;;;;;4.89;81.97;100670.63;5050012;28;20432;-77
2020/12/06 04:25:06;;;;;;;26.60;16.30;;;;;;;4.94;82.16;100682.59;5052160;28;20028;-76
2020/12/06 04:27:32;;;;;;;27.77;15.43;;;;;;;5.00;82.14;100681.66;5049130;28;20028;-76
2020/12/06 04:29:57;;;;;;;27.23;14.80;;;;;;;5.02;82.24;100680.34;5084359;28;20029;-76
2020/12/06 04:32:22;;;;;;;30.27;17.20;;;;;;;5.07;82.47;100685.00;5049811;28;20463;-76
2020/12/06 04:34:48;;;;;;;26.63;14.43;;;;;;;5.11;82.09;100684.31;5049587;28;20033;-76
2020/12/06 04:37:13;;;;;;;27.60;15.77;;;;;;;5.16;82.25;100680.06;5051073;28;20040;-76
2020/12/06 04:39:39;;;;;;;32.50;17.70;;;;;;;5.18;82.14;100673.34;5051649;28;20383;-76
2020/12/06 04:42:04;;;;;;;36.10;19.02;;;;;;;5.22;82.25;100696.13;5049695;28;20096;-76
2020/12/06 04:44:29;;;;;;;34.00;18.90;;;;;;;5.24;82.31;100699.44;5051893;28;20021;-77
2020/12/06 04:46:59;;;;;;;34.05;19.83;;;;;;;5.28;82.32;100708.69;5049735;28;20021;-76
2020/12/06 04:49:46;;;;;;;35.60;20.40;;;;;;;5.32;82.45;100696.34;5046665;28;20024;-77
2020/12/06 04:52:19;;;;;;;38.05;21.10;;;;;;;5.36;82.41;100682.34;5049690;28;20351;-76
2020/12/06 04:54:57;;;;;;;33.67;18.65;;;;;;;5.38;82.41;100689.16;5050679;28;20020;-76
2020/12/06 04:57:23;;;;;;;35.95;20.33;;;;;;;5.38;82.31;100688.34;5048674;28;20358;-76
2020/12/06 04:59:48;;;;;;;39.20;20.52;;;;;;;5.39;82.82;100673.75;5049432;28;20066;-77
2020/12/06 05:02:18;;;;;;;35.40;20.65;;;;;;;5.41;82.57;100666.22;5050442;28;20017;-78
2020/12/06 05:04:44;;;;;;;38.55;22.05;;;;;;;5.42;82.86;100651.63;5049621;28;20117;-76
2020/12/06 05:07:09;;;;;;;38.95;22.58;;;;;;;5.43;82.40;100661.38;5054452;28;20025;-77
2020/12/06 05:09:35;;;;;;;39.78;22.10;;;;;;;5.44;82.50;100665.72;5053355;28;20415;-76
2020/12/06 05:12:02;;;;;;;38.13;20.20;;;;;;;5.45;82.54;100672.78;5054181;28;20021;-76
2020/12/06 05:14:27;;;;;;;39.88;22.38;;;;;;;5.43;82.56;100670.31;5053116;28;20035;-77
2020/12/06 05:16:53;;;;;;;37.53;21.13;;;;;;;5.46;82.47;100679.84;5055294;28;20028;-78
2020/12/06 05:19:18;;;;;;;37.90;21.48;;;;;;;5.46;82.72;100682.53;5036691;28;20025;-76
2020/12/06 05:21:45;;;;;;;37.50;21.23;;;;;;;5.44;82.78;100681.94;5054079;28;20025;-77
2020/12/06 05:24:10;;;;;;;41.00;21.90;;;;;;;5.45;82.72;100694.41;5054120;28;20021;-76
2020/12/06 05:26:36;;;;;;;42.40;22.83;;;;;;;5.46;82.92;100696.06;5055255;28;20020;-77
2020/12/06 05:29:02;;;;;;;40.92;22.75;;;;;;;5.47;82.69;100714.72;5052895;28;20028;-76
2020/12/06 05:31:28;;;;;;;40.40;21.45;;;;;;;5.48;82.62;100716.38;5053888;28;20029;-76
2020/12/06 05:33:53;;;;;;;41.08;21.70;;;;;;;5.50;82.49;100710.72;5053743;28;20479;-76
2020/12/06 05:36:18;;;;;;;39.28;21.52;;;;;;;5.51;82.53;100709.66;5053770;28;20522;-76
2020/12/06 05:38:44;;;;;;;41.03;22.45;;;;;;;5.52;82.83;100722.94;5052933;28;20016;-77
2020/12/06 05:41:10;;;;;;;35.83;20.48;;;;;;;5.53;82.72;100723.75;5054798;28;20033;-76
2020/12/06 05:43:35;;;;;;;43.88;23.52;;;;;;;5.53;82.67;100718.34;5052868;28;20021;-76
2020/12/06 05:46:14;;;;;;;43.13;23.20;;;;;;;5.54;82.63;100720.00;5053637;28;20037;-77
2020/12/06 05:48:40;;;;;;;39.33;22.63;;;;;;;5.56;82.83;100717.84;5051998;28;20039;-76
2020/12/06 05:51:05;;;;;;;36.95;20.55;;;;;;;5.56;82.67;100720.56;5054670;28;20047;-77
2020/12/06 05:53:31;;;;;;;45.25;23.35;;;;;;;5.54;83.01;100725.41;5052732;28;20024;-76
2020/12/06 05:56:04;;;;;;;44.08;23.67;;;;;;;5.54;82.73;100741.63;5053476;28;20039;-76
2020/12/06 05:58:31;;;;;;;46.63;23.80;;;;;;;5.53;82.80;100729.97;5039621;28;20029;-76
2020/12/06 06:00:57;;;;;;;44.70;24.08;;;;;;;5.57;82.83;100733.03;5054801;28;20037;-76
2020/12/06 06:03:24;;;;;;;42.72;24.15;;;;;;;5.59;82.78;100735.47;5053673;28;20081;-76
2020/12/06 06:05:49;;;;;;;43.78;24.70;;;;;;;5.62;82.83;100741.25;5036956;28;20029;-76
2020/12/06 06:08:15;;;;;;;43.25;23.20;;;;;;;5.66;83.02;100744.28;5052444;28;20028;-76
2020/12/06 06:10:40;;;;;;;38.67;20.42;;;;;;;5.66;82.75;100738.88;5053315;28;20021;-76
2020/12/06 06:13:05;;;;;;;43.15;23.45;;;;;;;5.68;82.75;100752.97;5051405;28;20071;-75
2020/12/06 06:15:31;;;;;;;40.60;22.73;;;;;;;5.68;83.24;100753.81;5035564;28;20017;-75
2020/12/06 06:17:57;;;;;;;43.22;23.42;;;;;;;5.70;82.93;100745.41;5052482;28;20028;-75
2020/12/06 06:20:22;;;;;;;40.30;22.70;;;;;;;5.72;82.72;100757.66;5051855;28;20025;-75
2020/12/06 06:22:47;;;;;;;38.80;21.67;;;;;;;5.74;82.67;100762.81;5053061;28;20020;-76
2020/12/06 06:25:13;;;;;;;37.88;21.98;;;;;;;5.71;82.61;100753.31;5052443;28;20051;-76
2020/12/06 06:27:39;;;;;;;43.92;24.30;;;;;;;5.70;82.64;100746.28;5051848;28;20081;-76
2020/12/06 06:30:08;;;;;;;52.40;27.45;;;;;;;5.71;82.65;100744.38;5052068;28;20024;-75
2020/12/06 06:32:34;;;;;;;45.08;24.65;;;;;;;5.70;82.54;100735.44;5052717;28;20032;-75
2020/12/06 06:35:00;;;;;;;46.40;24.90;;;;;;;5.68;82.53;100729.44;5051763;28;20045;-75
2020/12/06 06:37:30;;;;;;;50.38;25.88;;;;;;;5.66;82.38;100738.88;5052585;28;20025;-76
2020/12/06 06:39:59;;;;;;;45.38;25.77;;;;;;;5.63;82.57;100742.06;5052117;28;20108;-75
2020/12/06 06:42:25;;;;;;;46.13;24.27;;;;;;;5.60;82.62;100732.56;5052453;28;20471;-76
2020/12/06 06:44:52;;;;;;;49.10;26.65;;;;;;;5.59;82.68;100733.59;5051728;28;20025;-75
2020/12/06 06:47:18;;;;;;;50.70;26.65;;;;;;;5.58;82.79;100734.66;5052383;28;20036;-75
2020/12/06 06:49:49;;;;;;;48.75;25.45;;;;;;;5.55;82.81;100717.03;5052824;28;20025;-75
2020/12/06 06:52:15;;;;;;;47.93;25.50;;;;;;;5.54;82.82;100711.91;5053737;28;20021;-75
2020/12/06 06:54:40;;;;;;;47.47;24.95;;;;;;;5.53;82.80;100719.16;5051707;28;20024;-75
2020/12/06 06:57:06;;;;;;;48.92;25.77;;;;;;;5.50;82.86;100724.25;5052580;28;20482;-76
2020/12/06 07:00:03;;;;;;;49.75;24.55;;;;;;;5.48;82.80;100719.09;5051124;28;20021;-75
2020/12/06 07:02:41;;;;;;;47.63;24.75;;;;;;;5.48;82.83;100716.38;5052307;28;20048;-75
2020/12/06 07:05:07;;;;;;;44.08;23.38;;;;;;;5.48;82.57;100718.25;5051255;28;20033;-75
2020/12/06 07:07:37;;;;;;;42.75;22.90;;;;;;;5.46;82.80;100714.97;5051204;28;20371;-75
2020/12/06 07:10:06;;;;;;;51.08;25.48;;;;;;;5.43;82.89;100701.91;5050111;28;20525;-75
2020/12/06 07:12:39;;;;;;;45.15;24.73;;;;;;;5.41;82.91;100698.66;5052125;28;20029;-76
2020/12/06 07:15:06;;;;;;;46.22;24.20;;;;;;;5.39;82.84;100701.59;5051057;28;20029;-75
2020/12/06 07:17:31;;;;;;;50.38;26.33;;;;;;;5.40;82.96;100710.53;5053061;28;20100;-76
2020/12/06 07:19:57;;;;;;;46.92;24.42;;;;;;;5.40;83.09;100721.34;5052147;28;20033;-75
2020/12/06 07:22:23;;;;;;;50.92;25.15;;;;;;;5.39;83.00;100722.41;5052028;28;20033;-75
2020/12/06 07:24:48;;;;;;;50.80;25.58;;;;;;;5.38;82.98;100709.97;5034261;28;20029;-76
2020/12/06 07:27:14;;;;;;;49.50;25.35;;;;;;;5.38;83.06;100720.78;5051599;28;20319;-75
2020/12/06 07:29:41;;;;;;;48.38;25.83;;;;;;;5.38;83.04;100707.25;5049836;28;20047;-75
2020/12/06 07:32:06;;;;;;;54.50;26.35;;;;;;;5.38;82.91;100710.78;5052932;28;20098;-75
2020/12/06 07:34:31;;;;;;;50.97;26.08;;;;;;;5.38;83.13;100716.19;5048670;28;20490;-75
2020/12/06 07:36:57;;;;;;;52.30;26.20;;;;;;;5.38;83.32;100721.59;5052802;28;20036;-75
2020/12/06 07:39:22;;;;;;;52.45;27.20;;;;;;;5.38;83.31;100708.06;5050559;28;20378;-75
2020/12/06 07:41:48;;;;;;;56.33;27.17;;;;;;;5.39;83.20;100706.19;5052806;28;20017;-76
2020/12/06 07:44:14;;;;;;;57.53;27.05;;;;;;;5.39;83.26;100711.59;5050479;28;20119;-75
2020/12/06 07:46:39;;;;;;;54.97;27.23;;;;;;;5.40;83.24;100708.66;5052700;28;20466;-75
2020/12/06 07:49:05;;;;;;;57.35;28.83;;;;;;;5.41;83.36;100720.28;5050519;28;20195;-75
2020/12/06 07:51:30;;;;;;;56.95;27.23;;;;;;;5.42;83.31;100732.72;5052402;28;20013;-77
2020/12/06 07:53:56;;;;;;;56.58;27.23;;;;;;;5.43;83.23;100728.97;5051607;28;20037;-75
2020/12/06 07:56:23;;;;;;;52.25;26.98;;;;;;;5.44;83.21;100725.22;5051204;28;20100;-76
2020/12/06 07:59:10;;;;;;;48.22;25.15;;;;;;;5.44;83.17;100709.00;5050606;28;20013;-75
2020/12/06 08:01:36;;;;;;;55.25;28.15;;;;;;;5.45;83.16;100711.44;5052292;28;20437;-75
2020/12/06 08:04:01;;;;;;;57.58;29.65;;;;;;;5.46;83.23;100717.69;5050510;28;20029;-75
2020/12/06 08:06:27;;;;;;;60.03;28.23;;;;;;;5.46;83.48;100714.97;5034363;28;20029;-75
2020/12/06 08:08:55;;;;;;;58.47;29.33;;;;;;;5.45;83.17;100710.63;5050138;28;20025;-75
2020/12/06 08:11:21;;;;;;;56.42;27.58;;;;;;;5.46;83.24;100696.88;5034544;28;20371;-75
2020/12/06 08:13:50;;;;;;;57.70;28.23;;;;;;;5.45;83.27;100697.09;5050104;28;20036;-75
2020/12/06 08:16:17;;;;;;;52.47;27.60;;;;;;;5.44;83.29;100692.78;5034261;28;20033;-75
2020/12/06 08:18:43;;;;;;;51.53;28.17;;;;;;;5.42;83.43;100682.19;5052013;28;20063;-75
2020/12/06 08:21:08;;;;;;;51.63;27.60;;;;;;;5.42;83.39;100675.97;5049842;28;20020;-75
2020/12/06 08:23:36;;;;;;;57.90;28.67;;;;;;;5.41;83.39;100675.16;5052059;28;20025;-75
2020/12/06 08:26:02;;;;;;;60.42;28.95;;;;;;;5.42;83.39;100675.97;5033343;28;20043;-76
2020/12/06 08:28:27;;;;;;;56.60;28.15;;;;;;;5.43;83.49;100675.72;5049979;28;20029;-75
2020/12/06 08:30:52;;;;;;;60.17;28.88;;;;;;;5.46;83.52;100686.06;5049777;28;20082;-76
2020/12/06 08:33:28;;;;;;;55.33;27.27;;;;;;;5.48;83.48;100700.16;5051959;28;20083;-76
2020/12/06 08:35:56;;;;;;;60.25;30.45;;;;;;;5.50;83.51;100708.00;5048778;28;20053;-75
2020/12/06 08:38:26;;;;;;;57.30;28.48;;;;;;;5.51;83.45;100721.31;5050738;28;20104;-76
2020/12/06 08:41:22;;;;;;;57.15;28.95;;;;;;;5.51;83.50;100725.88;5053687;28;20106;-76
2020/12/06 08:44:01;;;;;;;54.38;27.42;;;;;;;5.52;83.63;100730.22;5056533;28;20037;-77
2020/12/06 08:46:27;;;;;;;58.58;29.58;;;;;;;5.52;83.54;100732.94;5056929;28;20032;-76
2020/12/06 08:48:54;;;;;;;55.05;28.60;;;;;;;5.53;83.51;100748.09;5057210;28;20025;-76
2020/12/06 08:51:29;;;;;;;55.65;27.33;;;;;;;5.52;83.40;100746.47;5056201;28;20066;-77
2020/12/06 08:53:54;;;;;;;55.55;27.67;;;;;;;5.53;83.40;100739.97;5057394;28;20033;-76
2020/12/06 08:56:39;;;;;;;50.83;26.50;;;;;;;5.52;83.55;100739.16;5056536;28;20522;-75
2020/12/06 08:59:15;;;;;;;51.75;27.08;;;;;;;5.53;83.58;100731.88;5057224;28;20246;-75
2020/12/06 09:01:50;;;;;;;61.70;27.90;;;;;;;5.54;83.58;100730.81;5056203;28;20825;-76
2020/12/06 09:04:15;;;;;;;52.10;27.58;;;;;;;5.56;83.39;100725.97;5058421;28;20032;-75
2020/12/06 09:06:41;;;;;;;53.22;27.95;;;;;;;5.56;83.50;100717.84;5056079;28;20554;-75
2020/12/06 09:09:06;;;;;;;59.42;28.95;;;;;;;5.60;83.32;100712.81;5058331;28;20033;-76
2020/12/06 09:11:32;;;;;;;56.90;27.42;;;;;;;5.61;83.42;100693.63;5056022;28;20036;-75
2020/12/06 09:13:57;;;;;;;55.65;28.70;;;;;;;5.64;83.46;100695.00;5056925;28;20036;-76
2020/12/06 09:16:23;;;;;;;57.15;28.00;;;;;;;5.66;83.51;100699.13;5039462;28;20024;-76
2020/12/06 09:18:48;;;;;;;60.13;27.55;;;;;;;5.69;83.40;100695.09;5058542;28;20033;-76
2020/12/06 09:21:14;;;;;;;63.30;29.55;;;;;;;5.70;83.52;100703.00;5058121;28;20029;-75
2020/12/06 09:23:39;;;;;;;54.33;27.35;;;;;;;5.71;83.37;100710.03;5057252;28;20169;-76
2020/12/06 09:26:05;;;;;;;60.13;30.17;;;;;;;5.71;83.38;100699.22;5057243;28;20501;-75
2020/12/06 09:28:31;;;;;;;59.28;28.75;;;;;;;5.72;83.25;100705.44;5056123;28;20029;-75
2020/12/06 09:30:56;;;;;;;52.80;27.73;;;;;;;5.72;83.51;100700.84;5056835;28;20405;-76
2020/12/06 09:33:22;;;;;;;53.35;28.33;;;;;;;5.73;83.47;100701.69;5057227;28;20029;-75
2020/12/06 09:35:47;;;;;;;58.13;27.67;;;;;;;5.74;83.26;100687.91;5056632;28;20049;-75
2020/12/06 09:38:13;;;;;;;57.88;28.48;;;;;;;5.75;83.29;100686.81;5057198;28;20429;-75
2020/12/06 09:40:39;;;;;;;56.97;28.08;;;;;;;5.77;83.31;100682.00;5056952;28;20025;-75
2020/12/06 09:43:04;;;;;;;52.22;27.58;;;;;;;5.78;83.30;100691.78;5054040;28;20055;-75
2020/12/06 09:45:30;;;;;;;57.88;27.25;;;;;;;5.77;83.27;100686.59;5057984;28;20390;-75
2020/12/06 09:47:55;;;;;;;53.17;26.88;;;;;;;5.77;83.14;100682.00;5056922;28;20037;-75
2020/12/06 09:50:20;;;;;;;53.65;27.55;;;;;;;5.76;83.10;100680.38;5056759;28;20025;-75
2020/12/06 09:52:46;;;;;;;52.40;27.42;;;;;;;5.76;83.29;100674.16;5053409;28;20024;-75
2020/12/06 09:55:11;;;;;;;53.13;28.40;;;;;;;5.77;83.10;100665.78;5053609;28;20092;-75
2020/12/06 09:57:37;;;;;;;57.13;27.52;;;;;;;5.81;83.01;100649.03;5051739;28;20032;-75
2020/12/06 10:00:03;;;;;;;57.28;27.90;;;;;;;5.83;83.21;100646.91;5054479;28;20466;-75
2020/12/06 10:02:29;;;;;;;50.53;27.02;;;;;;;5.87;83.05;100650.78;5053738;28;20109;-75
2020/12/06 10:04:54;;;;;;;50.08;27.30;;;;;;;5.89;83.02;100651.34;5054569;28;20029;-75
2020/12/06 10:07:21;;;;;;;51.00;27.15;;;;;;;5.90;82.89;100647.59;5053748;28;20462;-75
2020/12/06 10:09:47;;;;;;;55.65;27.45;;;;;;;5.91;83.06;100658.16;5052522;28;20045;-75
2020/12/06 10:12:12;;;;;;;52.80;27.23;;;;;;;5.93;83.00;100663.31;5053746;28;20033;-75
2020/12/06 10:14:37;;;;;;;47.45;26.90;;;;;;;5.93;82.89;100666.03;5054178;28;20433;-75
2020/12/06 10:17:03;;;;;;;48.53;26.52;;;;;;;5.94;82.75;100670.41;5053496;28;20021;-75
2020/12/06 10:19:28;;;;;;;49.38;27.17;;;;;;;5.97;83.09;100669.91;5054188;28;20425;-75
2020/12/06 10:21:54;;;;;;;49.35;25.80;;;;;;;6.00;82.99;100631.53;5053352;28;20033;-76
2020/12/06 10:24:19;;;;;;;48.08;26.23;;;;;;;6.04;82.80;100634.56;5053991;28;20032;-75
2020/12/06 10:26:44;;;;;;;49.95;28.45;;;;;;;6.04;82.86;100643.50;5054371;28;20051;-75
2020/12/06 10:29:10;;;;;;;49.90;26.98;;;;;;;6.05;82.91;100644.31;5051926;28;20467;-76
2020/12/06 10:31:35;;;;;;;53.22;26.90;;;;;;;6.05;82.70;100645.13;5054065;28;20021;-75
2020/12/06 10:34:00;;;;;;;47.88;27.45;;;;;;;6.07;82.86;100653.03;5052794;28;20056;-76
2020/12/06 10:36:26;;;;;;;48.45;26.33;;;;;;;6.08;82.59;100655.47;5051864;28;20446;-75
2020/12/06 10:38:51;;;;;;;51.40;26.25;;;;;;;6.10;82.74;100656.03;5052108;28;20029;-77
2020/12/06 10:41:17;;;;;;;49.15;26.98;;;;;;;6.11;82.72;100665.81;5052384;28;20075;-75
2020/12/06 10:43:42;;;;;;;53.05;26.17;;;;;;;6.15;82.82;100656.13;5051982;28;20048;-75
2020/12/06 10:46:07;;;;;;;47.22;24.67;;;;;;;6.21;82.64;100648.91;5053583;28;20381;-75
2020/12/06 10:48:33;;;;;;;50.30;26.85;;;;;;;6.23;82.81;100658.41;5052947;28;20037;-75
2020/12/06 10:50:58;;;;;;;48.88;25.10;;;;;;;6.27;82.58;100653.31;5052450;28;20031;-75
2020/12/06 10:53:24;;;;;;;47.15;25.55;;;;;;;6.30;82.55;100646.59;5051513;28;20425;-75
2020/12/06 10:55:49;;;;;;;50.40;27.30;;;;;;;6.30;82.62;100636.59;5052436;28;20032;-75
2020/12/06 10:58:14;;;;;;;48.63;26.73;;;;;;;6.31;82.47;100626.59;5052582;28;20024;-75
2020/12/06 11:00:40;;;;;;;54.13;27.10;;;;;;;6.32;82.63;100617.38;5052256;28;20024;-75
2020/12/06 11:03:05;;;;;;;49.47;26.02;;;;;;;6.31;82.31;100613.03;5051289;28;20029;-75
2020/12/06 11:05:30;;;;;;;50.65;29.35;;;;;;;6.31;82.20;100604.91;5053437;28;20493;-75
2020/12/06 11:07:56;;;;;;;52.60;31.65;;;;;;;6.32;82.35;100607.38;5052552;28;20074;-75
2020/12/06 11:10:21;;;;;;;61.88;33.65;;;;;;;6.31;82.29;100594.91;5048525;28;20040;-76
2020/12/06 11:12:47;;;;;;;54.05;29.30;;;;;;;6.32;82.22;100601.94;5052532;28;20032;-75
2020/12/06 11:15:12;;;;;;;51.63;29.38;;;;;;;6.33;82.27;100603.59;5051838;28;20029;-76